Time;durP1;ratioP1;P1;durP2;ratioP2;P2;SDS_P1;SDS_P2;PMS_P1;PMS_P2;Temp;Humidity;BMP_temperature;BMP_pressure;BME280_temperature;BME280_humidity;BME280_pressure;Samples;Min_cycle;Max_cycle;Signal;HPM_P1;HPM_P2
2022/05/04 00:00:49;;;;;;;14.77;7.55;;;;;;;;;;5035715;28;20057;-63
2022/05/04 00:03:15;;;;;;;12.82;7.25;;;;;;;;;;5041993;28;20166;-62
2022/05/04 00:05:41;;;;;;;11.55;7.47;;;;;;;;;;5049749;28;20128;-59
2022/05/04 00:08:08;;;;;;;13.02;7.80;;;;;;;;;;5045344;28;20059;-62
2022/05/04 00:10:35;;;;;;;13.68;7.20;;;;;;;;;;5048767;28;20556;-63
2022/05/04 00:13:01;;;;;;;8.98;7.18;;;;;;;;;;5043407;28;20045;-61
2022/05/04 00:15:28;;;;;;;12.55;7.50;;;;;;;;;;5047117;28;20041;-61
2022/05/04 00:17:54;;;;;;;11.75;7.45;;;;;;;;;;5043590;28;20509;-63
2022/05/04 00:20:20;;;;;;;10.25;7.85;;;;;;;;;;5047386;28;20045;-60
2022/05/04 00:22:46;;;;;;;8.88;6.82;;;;;;;;;;5049384;28;20045;-60
2022/05/04 00:25:12;;;;;;;12.43;7.38;;;;;;;;;;5038877;28;20044;-61
2022/05/04 00:27:38;;;;;;;11.68;7.63;;;;;;;;;;5045369;28;20071;-63
2022/05/04 00:30:05;;;;;;;10.88;7.15;;;;;;;;;;5043768;28;20064;-61
2022/05/04 00:32:31;;;;;;;11.73;7.25;;;;;;;;;;5037878;28;20063;-61
2022/05/04 00:34:57;;;;;;;11.55;6.95;;;;;;;;;;5051296;28;20108;-61
2022/05/04 00:37:24;;;;;;;12.82;7.50;;;;;;;;;;5043928;28;20064;-60
2022/05/04 00:39:50;;;;;;;13.38;7.03;;;;;;;;;;5049142;28;20511;-61
2022/05/04 00:42:20;;;;;;;10.00;6.55;;;;;;;;;;5041094;28;20045;-62
2022/05/04 00:44:49;;;;;;;9.25;6.65;;;;;;;;;;5037949;28;20046;-61
2022/05/04 00:47:16;;;;;;;11.57;6.45;;;;;;;;;;5045834;28;20110;-61
2022/05/04 00:49:46;;;;;;;10.60;6.55;;;;;;;;;;5047801;28;20045;-60
2022/05/04 00:52:13;;;;;;;12.90;7.00;;;;;;;;;;5031701;28;20543;-61
2022/05/04 00:54:42;;;;;;;12.38;6.90;;;;;;;;;;5031880;28;20049;-61
2022/05/04 00:57:08;;;;;;;12.63;7.20;;;;;;;;;;5041114;28;20500;-61
2022/05/04 00:59:37;;;;;;;13.93;7.18;;;;;;;;;;5033687;28;20044;-60
2022/05/04 01:02:04;;;;;;;10.88;6.70;;;;;;;;;;5044995;28;20131;-61
2022/05/04 01:04:30;;;;;;;11.45;6.70;;;;;;;;;;5037597;28;20063;-67
2022/05/04 01:06:57;;;;;;;12.38;6.78;;;;;;;;;;5040343;28;20048;-62
2022/05/04 01:09:23;;;;;;;12.32;6.95;;;;;;;;;;5046183;28;20116;-63
2022/05/04 01:11:49;;;;;;;11.73;7.45;;;;;;;;;;5043654;28;20152;-61
2022/05/04 01:14:16;;;;;;;14.20;7.78;;;;;;;;;;5045818;28;20049;-68
2022/05/04 01:16:45;;;;;;;11.93;7.55;;;;;;;;;;5040030;28;20045;-61
2022/05/04 01:19:12;;;;;;;12.52;7.35;;;;;;;;;;5033185;28;20060;-61
2022/05/04 01:21:38;;;;;;;11.38;7.32;;;;;;;;;;5042079;28;20063;-63
2022/05/04 01:24:04;;;;;;;17.52;7.88;;;;;;;;;;5045694;28;20049;-60
2022/05/04 01:26:30;;;;;;;11.82;8.00;;;;;;;;;;5033577;28;20046;-61
2022/05/04 01:28:56;;;;;;;13.75;7.70;;;;;;;;;;5039788;28;20480;-60
2022/05/04 01:31:23;;;;;;;16.48;8.30;;;;;;;;;;5040378;28;20124;-60
2022/05/04 01:33:48;;;;;;;14.38;7.93;;;;;;;;;;5043733;28;20047;-61
2022/05/04 01:36:14;;;;;;;12.15;7.80;;;;;;;;;;5040571;28;20055;-61
2022/05/04 01:38:40;;;;;;;14.90;7.45;;;;;;;;;;5040069;28;20049;-61
2022/05/04 01:42:02;;;;;;;14.52;7.85;;;;;;;;;;5043800;28;20492;-60
2022/05/04 01:43:52;;;;;;;12.30;7.35;;;;;;;;;;5044258;28;20048;-59
2022/05/04 01:46:19;;;;;;;14.25;7.90;;;;;;;;;;5044053;28;20496;-61
2022/05/04 01:48:45;;;;;;;11.55;7.95;;;;;;;;;;5047876;28;20052;-63
2022/05/04 01:51:11;;;;;;;16.83;7.90;;;;;;;;;;5043987;28;20164;-60
2022/05/04 01:53:36;;;;;;;11.95;7.65;;;;;;;;;;5037298;28;20580;-60
2022/05/04 01:56:07;;;;;;;12.55;7.65;;;;;;;;;;5035804;28;20071;-61
2022/05/04 01:58:33;;;;;;;18.27;8.18;;;;;;;;;;5043301;28;20041;-61
2022/05/04 02:00:58;;;;;;;15.30;7.47;;;;;;;;;;5039316;28;20048;-61
2022/05/04 02:03:25;;;;;;;12.52;7.10;;;;;;;;;;5048562;28;20055;-61
2022/05/04 02:05:51;;;;;;;13.95;7.28;;;;;;;;;;5044240;28;20107;-61
2022/05/04 02:08:17;;;;;;;18.08;7.47;;;;;;;;;;5038602;28;20042;-61
2022/05/04 02:10:43;;;;;;;14.18;7.03;;;;;;;;;;5043948;28;20052;-61
2022/05/04 02:13:09;;;;;;;12.35;7.80;;;;;;;;;;5044978;28;20110;-59
2022/05/04 02:15:35;;;;;;;15.20;7.50;;;;;;;;;;5043745;28;20508;-60
2022/05/04 02:18:01;;;;;;;15.60;7.53;;;;;;;;;;5038756;28;20041;-61
2022/05/04 02:20:27;;;;;;;17.75;7.38;;;;;;;;;;5044469;28;20100;-64
2022/05/04 02:22:53;;;;;;;15.15;7.70;;;;;;;;;;5035020;28;20050;-60
2022/05/04 02:25:19;;;;;;;19.08;8.10;;;;;;;;;;5028845;28;20095;-62
2022/05/04 02:27:45;;;;;;;15.85;7.95;;;;;;;;;;5041159;28;20129;-60
2022/05/04 02:30:13;;;;;;;14.43;7.93;;;;;;;;;;5042069;28;20131;-62
2022/05/04 02:32:39;;;;;;;15.63;7.90;;;;;;;;;;5045237;28;20080;-59
2022/05/04 02:37:55;;;;;;;17.80;7.53;;;;;;;;;;5048079;28;20099;-62
2022/05/04 02:40:22;;;;;;;16.67;7.63;;;;;;;;;;5041610;28;20049;-60
2022/05/04 02:42:48;;;;;;;17.38;8.13;;;;;;;;;;5045607;28;20053;-61
2022/05/04 02:45:14;;;;;;;14.30;7.85;;;;;;;;;;5041273;28;20045;-60
2022/05/04 02:47:40;;;;;;;15.50;8.43;;;;;;;;;;5043299;28;20044;-59
2022/05/04 02:50:07;;;;;;;15.65;7.70;;;;;;;;;;5050642;28;20551;-60
2022/05/04 02:52:33;;;;;;;20.05;8.43;;;;;;;;;;5040302;28;20520;-61
2022/05/04 02:54:59;;;;;;;22.15;8.85;;;;;;;;;;5045630;28;20076;-60
2022/05/04 02:57:25;;;;;;;18.73;8.68;;;;;;;;;;5044738;28;20159;-62
2022/05/04 02:59:51;;;;;;;16.40;8.45;;;;;;;;;;5044599;28;20509;-59
2022/05/04 03:02:29;;;;;;;19.80;8.18;;;;;;;;;;5045621;28;20069;-63
2022/05/04 03:04:59;;;;;;;16.65;8.57;;;;;;;;;;5047941;28;20048;-60
2022/05/04 03:07:26;;;;;;;15.32;8.52;;;;;;;;;;5044754;28;20044;-63
2022/05/04 03:09:56;;;;;;;17.70;10.05;;;;;;;;;;5045078;28;20056;-60
2022/05/04 03:12:22;;;;;;;15.18;8.75;;;;;;;;;;5038529;28;20588;-63
2022/05/04 03:14:49;;;;;;;14.70;8.40;;;;;;;;;;5044800;28;20049;-61
2022/05/04 03:17:15;;;;;;;17.88;9.50;;;;;;;;;;5042045;28;20049;-61
2022/05/04 03:19:41;;;;;;;22.45;9.75;;;;;;;;;;5033671;28;20069;-62
2022/05/04 03:22:07;;;;;;;17.70;9.88;;;;;;;;;;5041983;28;20050;-59
2022/05/04 03:24:33;;;;;;;13.57;8.43;;;;;;;;;;5033439;28;20107;-59
2022/05/04 03:26:59;;;;;;;19.67;9.30;;;;;;;;;;5033788;28;20121;-61
2022/05/04 03:29:25;;;;;;;18.20;9.30;;;;;;;;;;5045435;28;20056;-62
2022/05/04 03:31:51;;;;;;;19.08;9.40;;;;;;;;;;5045900;28;20538;-61
2022/05/04 03:34:17;;;;;;;17.98;10.00;;;;;;;;;;5042639;28;20064;-60
2022/05/04 03:36:43;;;;;;;20.85;10.30;;;;;;;;;;5039760;28;20053;-61
2022/05/04 03:39:09;;;;;;;16.58;10.15;;;;;;;;;;5040960;28;20055;-61
2022/05/04 03:41:35;;;;;;;17.00;9.57;;;;;;;;;;5042867;28;20443;-62
2022/05/04 03:44:01;;;;;;;17.63;9.93;;;;;;;;;;5039495;28;20412;-61
2022/05/04 03:46:29;;;;;;;14.75;9.40;;;;;;;;;;5039709;28;20045;-65
2022/05/04 03:48:58;;;;;;;16.50;9.82;;;;;;;;;;5041372;28;20493;-60
2022/05/04 03:51:25;;;;;;;15.13;9.95;;;;;;;;;;5044689;28;20083;-61
2022/05/04 03:53:52;;;;;;;16.45;10.00;;;;;;;;;;5042017;28;20583;-60
2022/05/04 03:56:19;;;;;;;18.17;10.70;;;;;;;;;;5044340;28;20075;-60
2022/05/04 03:58:45;;;;;;;19.33;11.80;;;;;;;;;;5045352;28;20057;-61
2022/05/04 04:01:13;;;;;;;18.52;11.70;;;;;;;;;;5040000;28;20659;-59
2022/05/04 04:03:39;;;;;;;20.25;11.85;;;;;;;;;;5040846;28;20045;-60
2022/05/04 04:06:06;;;;;;;18.30;11.85;;;;;;;;;;5048108;28;20045;-62
2022/05/04 04:08:32;;;;;;;17.75;11.57;;;;;;;;;;5043422;28;20202;-59
2022/05/04 04:10:59;;;;;;;19.70;12.13;;;;;;;;;;5040486;28;20037;-61
2022/05/04 04:13:26;;;;;;;17.25;11.40;;;;;;;;;;5036676;28;20082;-61
2022/05/04 04:15:52;;;;;;;21.70;11.43;;;;;;;;;;5042966;28;20132;-60
2022/05/04 04:18:22;;;;;;;21.67;12.23;;;;;;;;;;5043559;28;21538;-60
2022/05/04 04:23:34;;;;;;;20.20;12.15;;;;;;;;;;5039082;28;20037;-61
2022/05/04 04:26:01;;;;;;;19.80;11.80;;;;;;;;;;5043145;28;20045;-61
2022/05/04 04:28:27;;;;;;;20.90;12.63;;;;;;;;;;5041246;28;20046;-61
2022/05/04 04:30:53;;;;;;;16.95;10.77;;;;;;;;;;5049388;28;20491;-61
2022/05/04 04:33:19;;;;;;;16.75;10.88;;;;;;;;;;5037808;28;20067;-64
2022/05/04 04:35:45;;;;;;;18.33;11.13;;;;;;;;;;5028908;28;20203;-61
2022/05/04 04:38:11;;;;;;;19.30;9.95;;;;;;;;;;5033042;28;20049;-60
2022/05/04 04:40:36;;;;;;;17.42;9.43;;;;;;;;;;5041487;28;20061;-63
2022/05/04 04:43:02;;;;;;;14.35;9.80;;;;;;;;;;5042141;28;20051;-61
2022/05/04 04:45:29;;;;;;;18.38;9.95;;;;;;;;;;5040755;28;20053;-60
2022/05/04 04:47:56;;;;;;;16.45;9.50;;;;;;;;;;5038752;28;20412;-60
2022/05/04 04:50:23;;;;;;;15.52;8.70;;;;;;;;;;5040445;28;20404;-62
2022/05/04 04:52:49;;;;;;;17.42;8.80;;;;;;;;;;5055858;28;20057;-61
2022/05/04 04:55:15;;;;;;;17.63;9.30;;;;;;;;;;5041088;28;20060;-61
2022/05/04 04:57:41;;;;;;;14.73;9.50;;;;;;;;;;5040699;28;20079;-62
2022/05/04 05:00:08;;;;;;;14.95;9.25;;;;;;;;;;5039418;28;20298;-67
2022/05/04 05:02:35;;;;;;;15.77;9.35;;;;;;;;;;5040828;28;20048;-61
2022/05/04 05:05:02;;;;;;;12.70;9.35;;;;;;;;;;5038946;28;20127;-63
2022/05/04 05:07:28;;;;;;;12.98;8.57;;;;;;;;;;5038247;28;20124;-61
2022/05/04 05:09:54;;;;;;;25.80;9.45;;;;;;;;;;5039226;28;20140;-60
2022/05/04 05:12:21;;;;;;;16.42;8.80;;;;;;;;;;5039413;28;20139;-64
2022/05/04 05:17:32;;;;;;;16.52;9.45;;;;;;;;;;5040741;28;20464;-62
2022/05/04 05:19:59;;;;;;;16.73;9.32;;;;;;;;;;5044253;28;20048;-60
2022/05/04 05:22:24;;;;;;;16.20;8.77;;;;;;;;;;5043228;28;20076;-61
2022/05/04 05:24:50;;;;;;;22.58;9.45;;;;;;;;;;5041736;28;20122;-61
2022/05/04 05:27:16;;;;;;;15.35;8.85;;;;;;;;;;5021947;28;20040;-61
2022/05/04 05:29:42;;;;;;;14.05;9.10;;;;;;;;;;5041806;28;20056;-61
2022/05/04 05:32:09;;;;;;;20.17;9.48;;;;;;;;;;5038096;28;20132;-62
2022/05/04 05:34:35;;;;;;;14.15;9.30;;;;;;;;;;5041210;28;20045;-63
2022/05/04 05:37:01;;;;;;;22.58;9.85;;;;;;;;;;5036578;28;20079;-66
2022/05/04 05:39:27;;;;;;;18.38;8.88;;;;;;;;;;5041318;28;20052;-62
2022/05/04 05:41:53;;;;;;;16.50;9.35;;;;;;;;;;5044303;28;20049;-65
2022/05/04 05:44:19;;;;;;;15.90;8.80;;;;;;;;;;5042757;28;20045;-62
2022/05/04 05:46:45;;;;;;;21.48;9.65;;;;;;;;;;5043160;28;20420;-61
2022/05/04 05:49:10;;;;;;;18.48;8.90;;;;;;;;;;5037333;28;20056;-61
2022/05/04 05:51:36;;;;;;;21.02;9.30;;;;;;;;;;5042186;28;20485;-65
2022/05/04 05:54:03;;;;;;;20.25;9.00;;;;;;;;;;5042750;28;20568;-64
2022/05/04 05:56:29;;;;;;;17.08;8.32;;;;;;;;;;5042689;28;20408;-62
2022/05/04 05:58:55;;;;;;;18.55;8.65;;;;;;;;;;5041706;28;20049;-62
2022/05/04 06:01:20;;;;;;;13.60;7.85;;;;;;;;;;5040741;28;20508;-62
2022/05/04 06:03:46;;;;;;;22.85;8.07;;;;;;;;;;5042367;28;20064;-63
2022/05/04 06:06:13;;;;;;;18.67;7.80;;;;;;;;;;5041828;28;20128;-61
2022/05/04 06:08:39;;;;;;;12.25;7.03;;;;;;;;;;5045043;28;20053;-63
2022/05/04 06:11:05;;;;;;;19.02;7.75;;;;;;;;;;5046386;28;20049;-60
2022/05/04 06:13:31;;;;;;;16.67;7.53;;;;;;;;;;5045935;28;20511;-63
2022/05/04 06:15:57;;;;;;;15.65;7.18;;;;;;;;;;5046883;28;20041;-62
2022/05/04 06:18:22;;;;;;;10.77;7.00;;;;;;;;;;5046836;28;20041;-60
2022/05/04 06:20:48;;;;;;;14.23;6.80;;;;;;;;;;5044606;28;20064;-60
2022/05/04 06:23:14;;;;;;;13.77;7.05;;;;;;;;;;5048903;28;20068;-61
2022/05/04 06:25:42;;;;;;;17.17;6.85;;;;;;;;;;5046240;28;20140;-61
2022/05/04 06:28:08;;;;;;;18.08;7.95;;;;;;;;;;5046517;28;20448;-64
2022/05/04 06:36:03;;;;;;;18.13;8.15;;;;;;;;;;5041262;28;20056;-61
2022/05/04 06:38:29;;;;;;;19.23;7.63;;;;;;;;;;5050448;28;20408;-68
2022/05/04 06:40:54;;;;;;;20.67;7.63;;;;;;;;;;5048828;28;20318;-60
2022/05/04 06:43:20;;;;;;;16.92;8.23;;;;;;;;;;5041157;28;20060;-66
2022/05/04 06:45:46;;;;;;;15.02;8.18;;;;;;;;;;5043191;28;20496;-60
2022/05/04 06:48:12;;;;;;;18.73;7.90;;;;;;;;;;5044141;28;20060;-62
2022/05/04 06:50:38;;;;;;;27.77;8.65;;;;;;;;;;5041941;28;20040;-61
2022/05/04 06:53:04;;;;;;;16.35;7.72;;;;;;;;;;5042611;28;20057;-64
2022/05/04 06:55:30;;;;;;;14.32;7.22;;;;;;;;;;5041613;28;20033;-66
2022/05/04 06:57:56;;;;;;;15.77;7.75;;;;;;;;;;5041277;28;20229;-61
2022/05/04 07:00:22;;;;;;;14.27;6.90;;;;;;;;;;5044165;28;20055;-61
2022/05/04 07:02:47;;;;;;;12.98;7.28;;;;;;;;;;5041338;28;20053;-62
2022/05/04 07:05:13;;;;;;;9.93;6.80;;;;;;;;;;5045912;28;20490;-60
2022/05/04 07:07:39;;;;;;;13.70;6.55;;;;;;;;;;5043236;28;20045;-60
2022/05/04 07:10:05;;;;;;;10.10;7.10;;;;;;;;;;5044455;28;20041;-61
2022/05/04 07:12:32;;;;;;;12.30;7.15;;;;;;;;;;5043954;28;20057;-61
2022/05/04 07:14:58;;;;;;;11.57;6.72;;;;;;;;;;5043465;28;20041;-62
2022/05/04 07:17:24;;;;;;;12.52;7.00;;;;;;;;;;5042159;28;20049;-63
2022/05/04 07:19:50;;;;;;;15.40;7.15;;;;;;;;;;5044968;28;20500;-62
2022/05/04 07:22:16;;;;;;;15.85;6.63;;;;;;;;;;5044101;28;20049;-65
2022/05/04 07:24:42;;;;;;;13.93;6.82;;;;;;;;;;5041761;28;20163;-62
2022/05/04 07:27:08;;;;;;;11.82;7.10;;;;;;;;;;5041703;28;20642;-61
2022/05/04 07:29:34;;;;;;;13.27;7.10;;;;;;;;;;5044622;28;20124;-64
2022/05/04 07:32:04;;;;;;;14.60;7.40;;;;;;;;;;5044863;28;20242;-61
2022/05/04 07:34:30;;;;;;;14.68;6.95;;;;;;;;;;5043731;28;20630;-62
2022/05/04 07:36:57;;;;;;;14.52;8.10;;;;;;;;;;5043910;28;20048;-60
2022/05/04 07:42:26;;;;;;;;;;;;;;;;;;5042513;28;20060;-63
2022/05/04 07:45:02;;;;;;;19.13;8.35;;;;;;;;;;5043521;28;20377;-62
2022/05/04 07:47:30;;;;;;;18.98;7.93;;;;;;;;;;5043325;28;20057;-62
2022/05/04 07:49:57;;;;;;;16.20;8.18;;;;;;;;;;5039157;28;20045;-61
2022/05/04 07:52:24;;;;;;;15.55;7.72;;;;;;;;;;5043932;28;20423;-65
2022/05/04 07:54:51;;;;;;;16.85;8.15;;;;;;;;;;5040879;28;20581;-63
2022/05/04 07:57:17;;;;;;;19.02;7.25;;;;;;;;;;5043251;28;20064;-63
2022/05/04 08:04:16;;;;;;;20.95;7.95;;;;;;;;;;5044670;28;20045;-63
2022/05/04 08:05:13;;;;;;;13.73;8.00;;;;;;;;;;5045851;28;20060;-61
2022/05/04 08:07:39;;;;;;;15.25;8.13;;;;;;;;;;5046986;28;20044;-66
2022/05/04 08:10:05;;;;;;;22.50;7.90;;;;;;;;;;5044533;28;20060;-63
2022/05/04 08:12:33;;;;;;;17.65;8.32;;;;;;;;;;5037019;28;20057;-62
2022/05/04 08:15:02;;;;;;;23.05;7.40;;;;;;;;;;5040284;28;20113;-62
2022/05/04 08:17:28;;;;;;;17.80;7.57;;;;;;;;;;5038989;28;20045;-62
2022/05/04 08:19:54;;;;;;;17.55;8.25;;;;;;;;;;5042144;28;20107;-63
2022/05/04 08:22:20;;;;;;;13.70;7.00;;;;;;;;;;5040251;28;20049;-62
2022/05/04 08:24:46;;;;;;;12.65;6.47;;;;;;;;;;5044276;28;20057;-63
2022/05/04 08:27:11;;;;;;;14.57;6.47;;;;;;;;;;5042439;28;20053;-61
2022/05/04 08:29:38;;;;;;;12.65;6.90;;;;;;;;;;5040127;28;20060;-62
2022/05/04 08:32:04;;;;;;;13.98;6.18;;;;;;;;;;5042793;28;20103;-62
2022/05/04 08:34:30;;;;;;;19.08;7.20;;;;;;;;;;5044147;28;20075;-63
2022/05/04 08:36:56;;;;;;;11.80;6.90;;;;;;;;;;5040534;28;20049;-61
2022/05/04 08:39:22;;;;;;;17.88;7.00;;;;;;;;;;5040740;28;20412;-67
2022/05/04 08:41:47;;;;;;;15.05;6.68;;;;;;;;;;5041118;28;20065;-63
2022/05/04 08:44:13;;;;;;;14.43;7.00;;;;;;;;;;5040638;28;20156;-62
2022/05/04 08:46:42;;;;;;;12.85;7.10;;;;;;;;;;5040499;28;20101;-61
2022/05/04 08:49:08;;;;;;;15.63;7.22;;;;;;;;;;5042345;28;20029;-62
2022/05/04 08:51:36;;;;;;;12.27;6.13;;;;;;;;;;5043557;28;20475;-61
2022/05/04 08:54:04;;;;;;;11.15;5.95;;;;;;;;;;5042248;28;20055;-64
2022/05/04 08:56:31;;;;;;;13.38;5.75;;;;;;;;;;5039765;28;20045;-61
2022/05/04 08:58:58;;;;;;;10.23;5.95;;;;;;;;;;5040044;28;20625;-60
2022/05/04 09:01:24;;;;;;;12.45;5.70;;;;;;;;;;5041808;28;20057;-61
2022/05/04 09:03:51;;;;;;;9.57;5.57;;;;;;;;;;5040580;28;20595;-60
2022/05/04 09:06:27;;;;;;;13.38;5.95;;;;;;;;;;5039933;28;20064;-60
2022/05/04 09:09:08;;;;;;;20.75;6.47;;;;;;;;;;5038849;28;20574;-62
2022/05/04 09:11:38;;;;;;;14.73;6.28;;;;;;;;;;5041115;28;20057;-61
2022/05/04 09:14:25;;;;;;;12.48;6.78;;;;;;;;;;5055319;28;20041;-61
2022/05/04 09:16:52;;;;;;;15.23;6.32;;;;;;;;;;5033247;28;20056;-68
2022/05/04 09:19:19;;;;;;;13.80;6.70;;;;;;;;;;5040043;28;20862;-62
2022/05/04 09:21:48;;;;;;;13.85;6.45;;;;;;;;;;5037509;28;20045;-61
2022/05/04 09:24:16;;;;;;;12.18;6.90;;;;;;;;;;5034701;28;20053;-61
2022/05/04 09:26:43;;;;;;;8.25;5.82;;;;;;;;;;5041252;28;20131;-63
2022/05/04 09:29:11;;;;;;;12.52;6.88;;;;;;;;;;5039173;28;20049;-64
2022/05/04 09:31:45;;;;;;;11.43;6.53;;;;;;;;;;5039617;28;20462;-62
2022/05/04 09:34:12;;;;;;;18.13;6.78;;;;;;;;;;5039974;28;20415;-61
2022/05/04 09:45:11;;;;;;;16.75;6.47;;;;;;;;;;5040886;28;20128;-63
2022/05/04 09:47:39;;;;;;;14.15;6.35;;;;;;;;;;5040093;28;20187;-65
2022/05/04 09:50:05;;;;;;;10.77;5.90;;;;;;;;;;5036493;28;20118;-65
2022/05/04 09:52:45;;;;;;;12.27;5.80;;;;;;;;;;5039690;28;20037;-66
2022/05/04 09:55:20;;;;;;;12.43;6.18;;;;;;;;;;5035625;28;20113;-64
2022/05/04 09:57:47;;;;;;;14.40;6.10;;;;;;;;;;5042392;28;20057;-64
2022/05/04 10:00:19;;;;;;;12.60;6.05;;;;;;;;;;5039578;28;20053;-61
2022/05/04 10:02:46;;;;;;;13.30;6.25;;;;;;;;;;5041271;28;20504;-66
2022/05/04 10:05:13;;;;;;;19.88;6.20;;;;;;;;;;5037480;28;20154;-63
2022/05/04 10:07:41;;;;;;;12.88;6.65;;;;;;;;;;5036982;28;20053;-65
2022/05/04 10:10:08;;;;;;;12.07;6.03;;;;;;;;;;5032539;28;20110;-63
2022/05/04 10:12:39;;;;;;;10.77;5.63;;;;;;;;;;5038304;28;20115;-62
2022/05/04 10:15:10;;;;;;;11.95;6.50;;;;;;;;;;5036966;28;20120;-67
2022/05/04 10:17:46;;;;;;;12.23;6.30;;;;;;;;;;5036791;28;20041;-63
2022/05/04 10:20:30;;;;;;;14.15;6.43;;;;;;;;;;5036164;28;20144;-63
2022/05/04 10:23:27;;;;;;;12.05;6.30;;;;;;;;;;5039041;28;20045;-62
2022/05/04 10:25:57;;;;;;;13.50;7.70;;;;;;;;;;5038505;28;20060;-62
2022/05/04 10:28:23;;;;;;;13.13;7.68;;;;;;;;;;5037613;28;20049;-63
2022/05/04 10:30:55;;;;;;;18.63;8.55;;;;;;;;;;5041160;28;20056;-63
2022/05/04 10:33:43;;;;;;;16.13;8.35;;;;;;;;;;5045087;28;20068;-65
2022/05/04 10:36:17;;;;;;;18.40;8.07;;;;;;;;;;5038407;28;20045;-63
2022/05/04 10:38:44;;;;;;;20.95;8.48;;;;;;;;;;5040860;28;20471;-62
2022/05/04 10:41:11;;;;;;;18.30;7.97;;;;;;;;;;5036179;28;20522;-63
2022/05/04 10:43:47;;;;;;;16.80;7.88;;;;;;;;;;5036991;28;20062;-62
2022/05/04 10:46:18;;;;;;;19.85;8.20;;;;;;;;;;5037466;28;20106;-62
2022/05/04 10:48:51;;;;;;;12.25;8.00;;;;;;;;;;5040574;28;20080;-63
2022/05/04 10:51:19;;;;;;;15.40;8.55;;;;;;;;;;5036019;28;20053;-63
2022/05/04 10:53:56;;;;;;;23.02;8.10;;;;;;;;;;5038507;28;20423;-65
2022/05/04 10:56:24;;;;;;;21.92;7.68;;;;;;;;;;5042591;28;20080;-65
2022/05/04 10:58:50;;;;;;;21.23;8.40;;;;;;;;;;5041902;28;20471;-65
2022/05/04 11:01:20;;;;;;;13.15;6.85;;;;;;;;;;5040893;28;20049;-63
2022/05/04 11:03:50;;;;;;;13.77;7.82;;;;;;;;;;5044698;28;20063;-65
2022/05/04 11:06:27;;;;;;;16.98;7.30;;;;;;;;;;5050335;28;20045;-65
2022/05/04 11:08:56;;;;;;;14.45;7.78;;;;;;;;;;5051932;28;20343;-63
2022/05/04 11:11:23;;;;;;;12.32;7.35;;;;;;;;;;5051221;28;20554;-63
2022/05/04 11:13:50;;;;;;;17.92;7.55;;;;;;;;;;5048784;28;20504;-63
2022/05/04 11:16:16;;;;;;;17.10;7.07;;;;;;;;;;5045561;28;20396;-64
2022/05/04 11:18:42;;;;;;;11.80;6.85;;;;;;;;;;5046898;28;20175;-62
2022/05/04 11:21:15;;;;;;;15.18;6.55;;;;;;;;;;5047127;28;20052;-68
2022/05/04 11:23:46;;;;;;;14.40;6.13;;;;;;;;;;5046772;28;20160;-63
2022/05/04 11:26:35;;;;;;;12.77;6.10;;;;;;;;;;5046160;28;20053;-65
2022/05/04 11:29:17;;;;;;;14.07;6.25;;;;;;;;;;5044567;28;20086;-68
2022/05/04 11:32:04;;;;;;;11.55;5.70;;;;;;;;;;5041055;28;20564;-64
2022/05/04 11:34:37;;;;;;;11.93;5.20;;;;;;;;;;5044442;28;20052;-62
2022/05/04 11:37:08;;;;;;;13.02;5.70;;;;;;;;;;5046863;28;20044;-65
2022/05/04 11:39:36;;;;;;;14.70;5.65;;;;;;;;;;5043685;28;20143;-63
2022/05/04 11:42:04;;;;;;;13.48;5.55;;;;;;;;;;5044113;28;20052;-64
2022/05/04 11:44:31;;;;;;;11.82;5.25;;;;;;;;;;5048451;28;20057;-63
2022/05/04 11:46:58;;;;;;;14.75;6.20;;;;;;;;;;5045167;28;20053;-62
2022/05/04 11:49:30;;;;;;;8.85;5.22;;;;;;;;;;5044177;28;20072;-65
2022/05/04 11:51:57;;;;;;;8.48;4.40;;;;;;;;;;5044869;28;20057;-63
2022/05/04 11:54:25;;;;;;;8.23;5.22;;;;;;;;;;5040313;28;20072;-65
2022/05/04 11:56:51;;;;;;;20.02;6.22;;;;;;;;;;5038534;28;20135;-63
2022/05/04 11:59:17;;;;;;;11.27;4.78;;;;;;;;;;5038111;28;20048;-66
2022/05/04 12:01:44;;;;;;;14.88;4.90;;;;;;;;;;5049400;28;20048;-63
2022/05/04 12:04:12;;;;;;;10.65;4.53;;;;;;;;;;5046115;28;20053;-64
2022/05/04 12:06:39;;;;;;;10.98;4.47;;;;;;;;;;5037365;28;20169;-63
2022/05/04 12:09:05;;;;;;;14.23;5.10;;;;;;;;;;5049402;28;20507;-63
2022/05/04 12:11:32;;;;;;;10.27;4.80;;;;;;;;;;5053796;28;20049;-63
2022/05/04 12:13:59;;;;;;;8.93;4.63;;;;;;;;;;5053558;28;20045;-62
2022/05/04 12:16:26;;;;;;;10.77;5.15;;;;;;;;;;5053029;28;20508;-65
2022/05/04 12:18:52;;;;;;;11.20;5.10;;;;;;;;;;5051808;28;20056;-65
2022/05/04 12:21:22;;;;;;;13.90;5.20;;;;;;;;;;5046621;28;20463;-63
2022/05/04 12:23:51;;;;;;;13.05;5.43;;;;;;;;;;5031591;28;20255;-63
2022/05/04 12:26:18;;;;;;;9.25;4.60;;;;;;;;;;5037828;28;20049;-63
2022/05/04 12:33:08;;;;;;;18.02;5.40;;;;;;;;;;5051097;28;20049;-63
2022/05/04 12:34:21;;;;;;;17.95;5.63;;;;;;;;;;5049737;28;20040;-64
2022/05/04 12:36:47;;;;;;;10.32;4.88;;;;;;;;;;5048877;28;20053;-64
2022/05/04 12:39:14;;;;;;;13.82;6.47;;;;;;;;;;5047257;28;20507;-65
2022/05/04 12:41:43;;;;;;;17.38;5.53;;;;;;;;;;5030736;28;20039;-64
2022/05/04 12:44:10;;;;;;;14.98;5.70;;;;;;;;;;5039897;28;20056;-64
2022/05/04 12:46:37;;;;;;;10.02;4.70;;;;;;;;;;5039505;28;20504;-64
2022/05/04 12:49:04;;;;;;;13.13;4.18;;;;;;;;;;5032687;28;20057;-65
2022/05/04 12:51:30;;;;;;;14.07;4.97;;;;;;;;;;5042051;28;20057;-64
2022/05/04 12:53:56;;;;;;;11.30;4.65;;;;;;;;;;5042731;28;20084;-70
2022/05/04 12:59:08;;;;;;;14.18;4.70;;;;;;;;;;5045578;28;20068;-64
2022/05/04 13:01:36;;;;;;;12.55;5.00;;;;;;;;;;5044550;28;20111;-64
2022/05/04 13:04:02;;;;;;;11.88;4.30;;;;;;;;;;5044913;28;20059;-64
2022/05/04 13:06:29;;;;;;;13.27;4.90;;;;;;;;;;5038824;28;20049;-63
2022/05/04 13:08:55;;;;;;;8.25;4.32;;;;;;;;;;5041309;28;20056;-65
2022/05/04 13:11:24;;;;;;;9.98;4.32;;;;;;;;;;5041254;28;20041;-64
2022/05/04 13:13:50;;;;;;;10.30;4.63;;;;;;;;;;5040810;28;20110;-65
2022/05/04 13:16:16;;;;;;;14.70;4.68;;;;;;;;;;5042464;28;20049;-63
2022/05/04 13:18:42;;;;;;;12.65;4.60;;;;;;;;;;5045012;28;20049;-65
2022/05/04 13:21:09;;;;;;;15.32;5.20;;;;;;;;;;5041694;28;20086;-63
2022/05/04 13:23:35;;;;;;;11.55;4.70;;;;;;;;;;5039442;28;20619;-64
2022/05/04 13:26:02;;;;;;;17.30;5.72;;;;;;;;;;5041598;28;20144;-63
2022/05/04 13:28:28;;;;;;;16.13;6.10;;;;;;;;;;5041823;28;20523;-63
2022/05/04 13:30:54;;;;;;;16.75;5.88;;;;;;;;;;5037935;28;20049;-62
2022/05/04 13:33:20;;;;;;;12.50;5.90;;;;;;;;;;5035564;28;20057;-66
2022/05/04 13:35:46;;;;;;;13.52;5.75;;;;;;;;;;5029855;28;20075;-64
2022/05/04 13:38:12;;;;;;;10.27;5.55;;;;;;;;;;5035264;28;20500;-64
2022/05/04 13:40:39;;;;;;;16.15;5.80;;;;;;;;;;5037744;28;20526;-66
2022/05/04 13:43:05;;;;;;;14.70;5.82;;;;;;;;;;5038708;28;20060;-64
2022/05/04 13:45:31;;;;;;;18.77;5.32;;;;;;;;;;5039592;28;20063;-65
2022/05/04 13:47:57;;;;;;;11.05;5.50;;;;;;;;;;5037956;28;20487;-64
2022/05/04 13:53:14;;;;;;;14.32;6.93;;;;;;;;;;5035888;28;20127;-64
2022/05/04 13:55:56;;;;;;;14.15;6.15;;;;;;;;;;5038909;28;20063;-64
2022/05/04 13:58:23;;;;;;;17.90;6.45;;;;;;;;;;5038466;28;20411;-63
2022/05/04 14:00:51;;;;;;;14.75;5.95;;;;;;;;;;5052433;28;20044;-64
2022/05/04 14:03:17;;;;;;;13.20;5.18;;;;;;;;;;5038545;28;20049;-64
2022/05/04 14:05:43;;;;;;;14.80;5.97;;;;;;;;;;5041443;28;20075;-64
2022/05/04 14:08:10;;;;;;;16.75;5.30;;;;;;;;;;5039627;28;20053;-64
2022/05/04 14:10:37;;;;;;;10.88;5.43;;;;;;;;;;5038683;28;20048;-64
2022/05/04 14:13:03;;;;;;;10.88;5.20;;;;;;;;;;5037636;28;20075;-66
2022/05/04 14:15:29;;;;;;;12.20;5.47;;;;;;;;;;5038353;28;20124;-65
2022/05/04 14:17:55;;;;;;;14.05;5.53;;;;;;;;;;5039009;28;20474;-66
2022/05/04 14:20:21;;;;;;;10.63;5.40;;;;;;;;;;5040831;28;20127;-63
2022/05/04 14:22:48;;;;;;;15.07;6.07;;;;;;;;;;5038013;28;20085;-63
2022/05/04 14:25:14;;;;;;;14.68;5.70;;;;;;;;;;5040922;28;20053;-63
2022/05/04 14:27:40;;;;;;;15.05;5.65;;;;;;;;;;5040288;28;20048;-66
2022/05/04 14:30:08;;;;;;;11.70;4.80;;;;;;;;;;5039290;28;20136;-64
2022/05/04 14:32:34;;;;;;;12.68;5.25;;;;;;;;;;5040994;28;20060;-63
2022/05/04 14:35:00;;;;;;;7.38;4.80;;;;;;;;;;5045234;28;20045;-65
2022/05/04 14:37:27;;;;;;;10.38;4.88;;;;;;;;;;5045044;28;20061;-66
2022/05/04 14:39:52;;;;;;;9.10;4.70;;;;;;;;;;5046887;28;20100;-63
2022/05/04 14:42:18;;;;;;;15.85;4.85;;;;;;;;;;5041826;28;20084;-64
2022/05/04 14:44:45;;;;;;;10.35;5.25;;;;;;;;;;5043265;28;20377;-63
2022/05/04 14:47:11;;;;;;;12.55;5.28;;;;;;;;;;5042533;28;20102;-66
2022/05/04 14:49:37;;;;;;;13.18;5.60;;;;;;;;;;5060438;28;20435;-64
2022/05/04 14:52:04;;;;;;;11.57;5.63;;;;;;;;;;5036066;28;20049;-63
2022/05/04 14:54:30;;;;;;;9.15;5.20;;;;;;;;;;5021783;28;20049;-65
2022/05/04 14:56:56;;;;;;;14.30;5.28;;;;;;;;;;5012922;28;20057;-63
2022/05/04 14:59:22;;;;;;;10.90;5.18;;;;;;;;;;5027943;28;20046;-64
2022/05/04 15:01:47;;;;;;;13.85;5.50;;;;;;;;;;5025198;28;20037;-64
2022/05/04 15:06:58;;;;;;;15.45;6.43;;;;;;;;;;5030532;28;20053;-65
2022/05/04 15:09:23;;;;;;;13.65;5.38;;;;;;;;;;5031624;28;20048;-63
2022/05/04 15:11:49;;;;;;;11.00;4.80;;;;;;;;;;5031401;28;20132;-64